Terminal Aerodrome Forecast
Issued by NWS

Home | Current Version | Previous Version | Text Only | Print | Product List | Glossary On
Versions: 1 2 3 4 5 6 7 8 9 10 11 12 13 14 15 16 17 18 19 20 21
000
FTUS43 KILX 261400 AAA
TAFBMI
TAF AMD
KBMI 261424Z 2614/2712 22012KT P6SM SCT025
      TEMPO 2614/2617 BKN025
     FM261700 22010KT P6SM SCT035 SCT150
     FM262300 VRB06KT P6SM VCTS SCT040CB BKN080
      TEMPO 2700/2702 VRB25G40KT 3SM TSRA BR BKN025CB OVC040=

USA.gov is the U.S. government's official web portal to all federal, state and local government web resources and services.